Time;durP1;ratioP1;P1;durP2;ratioP2;P2;SDS_P1;SDS_P2;PMS_P1;PMS_P2;Temp;Humidity;BMP_temperature;BMP_pressure;BME280_temperature;BME280_humidity;BME280_pressure;Samples;Min_cycle;Max_cycle;Signal;HPM_P1;HPM_P2
2023/10/16 00:01:19;;;;;;;5.28;3.00;;;256.70;2252.80;;;;;;4952456;29;20042;-61
2023/10/16 00:03:45;;;;;;;6.18;2.72;;;256.70;2252.80;;;;;;4950876;29;20544;-61
2023/10/16 00:06:12;;;;;;;10.73;6.05;;;256.80;2252.80;;;;;;4950388;29;20126;-60
2023/10/16 00:08:47;;;;;;;8.85;5.47;;;256.90;2252.80;;;;;;4943805;29;20492;-62
2023/10/16 00:11:18;;;;;;;11.27;5.78;;;256.70;2252.80;;;;;;4945760;29;20062;-61
2023/10/16 00:13:47;;;;;;;8.02;4.25;;;256.70;2252.80;;;;;;4941672;29;20573;-61
2023/10/16 00:16:17;;;;;;;4.60;3.00;;;256.70;2252.80;;;;;;4959933;28;20074;-61
2023/10/16 00:18:45;;;;;;;7.68;4.30;;;256.70;2252.80;;;;;;4991289;28;20088;-63
2023/10/16 00:21:13;;;;;;;6.03;2.95;;;256.70;2252.80;;;;;;4978365;28;20031;-62
2023/10/16 00:23:40;;;;;;;5.57;3.53;;;256.70;2252.80;;;;;;4973017;28;20454;-61
2023/10/16 00:26:07;;;;;;;16.08;10.00;;;256.70;2252.80;;;;;;4991443;28;20022;-62
2023/10/16 00:28:34;;;;;;;7.80;5.07;;;256.70;2252.80;;;;;;4991344;28;20034;-62
2023/10/16 00:31:00;;;;;;;5.85;4.32;;;256.60;2252.80;;;;;;4991865;28;20399;-62
2023/10/16 00:33:27;;;;;;;5.20;3.00;;;256.60;2252.80;;;;;;4993367;28;20050;-61
2023/10/16 00:35:53;;;;;;;6.75;3.47;;;256.60;2252.80;;;;;;4976559;28;20194;-62
2023/10/16 00:38:22;;;;;;;8.15;5.15;;;256.50;2252.80;;;;;;4993176;28;20093;-62
2023/10/16 00:44:05;;;;;;;4.78;3.28;;;256.50;2252.80;;;;;;4995436;28;20068;-60
2023/10/16 00:46:37;;;;;;;5.07;3.67;;;256.30;2252.80;;;;;;4995204;28;20453;-60
2023/10/16 00:49:07;;;;;;;7.93;5.53;;;256.20;2252.80;;;;;;4976977;28;20413;-60
2023/10/16 00:51:40;;;;;;;11.23;6.70;;;256.10;2252.80;;;;;;4995352;28;20038;-61
2023/10/16 00:54:18;;;;;;;5.97;4.00;;;256.10;2252.80;;;;;;4995018;28;20073;-61
2023/10/16 00:56:50;;;;;;;6.88;3.50;;;256.00;2252.80;;;;;;4995245;28;20058;-62
2023/10/16 00:59:16;;;;;;;6.97;4.28;;;231.30;2252.80;;;;;;4994806;28;20046;-62
2023/10/16 01:01:46;;;;;;;6.43;3.33;;;231.30;2252.80;;;;;;4995018;28;20479;-62
2023/10/16 01:04:19;;;;;;;6.43;4.57;;;231.20;2252.80;;;;;;4994836;28;20559;-60
2023/10/16 01:06:45;;;;;;;6.63;3.53;;;231.30;2252.80;;;;;;4995331;28;20033;-61
2023/10/16 01:09:24;;;;;;;5.35;3.42;;;256.00;2252.80;;;;;;4994631;28;20038;-62
2023/10/16 01:11:51;;;;;;;6.07;3.83;;;256.10;2252.80;;;;;;4994564;28;20109;-61
2023/10/16 01:14:17;;;;;;;12.95;7.05;;;256.10;2252.80;;;;;;4994860;28;20473;-62
2023/10/16 01:16:46;;;;;;;9.15;5.80;;;256.10;2252.80;;;;;;4994627;28;20018;-62
2023/10/16 01:19:19;;;;;;;4.97;3.78;;;256.00;2252.80;;;;;;4994711;28;20364;-61
2023/10/16 01:21:46;;;;;;;10.65;4.93;;;256.00;2252.80;;;;;;4994782;28;20061;-59
2023/10/16 01:24:12;;;;;;;10.65;6.95;;;231.30;2252.80;;;;;;4994736;28;20038;-61
2023/10/16 01:26:41;;;;;;;6.85;4.60;;;231.30;2252.80;;;;;;4994629;28;20072;-61
2023/10/16 01:29:09;;;;;;;8.32;6.00;;;231.30;2252.80;;;;;;4993865;28;20037;-60
2023/10/16 01:31:36;;;;;;;9.02;5.60;;;256.00;2252.80;;;;;;4994341;28;20034;-61
2023/10/16 01:34:03;;;;;;;8.40;5.45;;;231.30;2252.80;;;;;;4994151;28;20036;-61
2023/10/16 01:36:30;;;;;;;6.85;4.45;;;231.20;2252.80;;;;;;4994204;28;20033;-59
2023/10/16 01:38:59;;;;;;;6.75;4.63;;;256.00;2252.80;;;;;;4994278;28;20053;-61
2023/10/16 01:41:25;;;;;;;8.48;4.38;;;231.30;2252.80;;;;;;4994007;28;20028;-61
2023/10/16 01:43:55;;;;;;;6.22;4.00;;;231.30;2252.80;;;;;;4994129;28;20053;-61
2023/10/16 01:49:44;;;;;;;6.20;3.85;;;231.20;2252.80;;;;;;4994207;28;20097;-61
2023/10/16 01:52:11;;;;;;;6.20;4.20;;;231.10;2252.80;;;;;;4994018;28;20022;-61
2023/10/16 01:54:38;;;;;;;6.82;4.10;;;231.20;2252.80;;;;;;4994196;28;20034;-61
2023/10/16 01:57:10;;;;;;;7.13;4.18;;;231.20;2252.80;;;;;;4994470;28;20084;-60
2023/10/16 01:59:47;;;;;;;7.07;4.40;;;231.20;2252.80;;;;;;4993991;28;20069;-61
2023/10/16 02:02:13;;;;;;;6.82;4.70;;;231.30;2252.80;;;;;;4993794;28;20015;-60
2023/10/16 02:04:40;;;;;;;6.20;4.13;;;256.00;2252.80;;;;;;4993771;28;20026;-60
2023/10/16 02:07:09;;;;;;;7.95;4.20;;;256.20;2252.80;;;;;;4994081;28;20018;-61
2023/10/16 02:09:36;;;;;;;7.40;4.90;;;256.10;2252.80;;;;;;4994037;28;20031;-60
2023/10/16 02:12:05;;;;;;;12.35;6.60;;;256.20;2252.80;;;;;;4993393;28;20357;-61
2023/10/16 02:14:32;;;;;;;18.33;12.13;;;256.20;2252.80;;;;;;4993755;28;20042;-61
2023/10/16 02:16:58;;;;;;;9.80;5.93;;;256.30;2252.80;;;;;;4993544;28;20019;-60
2023/10/16 02:19:25;;;;;;;6.88;3.92;;;256.20;2252.80;;;;;;4993548;28;20042;-60
2023/10/16 02:21:53;;;;;;;6.65;4.32;;;256.20;2252.80;;;;;;4993618;28;20076;-60
2023/10/16 02:24:19;;;;;;;38.30;27.13;;;256.30;2252.80;;;;;;4994100;28;20045;-60
2023/10/16 02:26:55;;;;;;;21.50;15.18;;;256.30;2252.80;;;;;;4993748;28;20473;-62
2023/10/16 02:29:22;;;;;;;23.52;15.30;;;256.30;2252.80;;;;;;4993905;28;20066;-60
2023/10/16 02:35:13;;;;;;;7.25;3.65;;;256.30;2252.80;;;;;;4993847;28;20519;-60
2023/10/16 02:37:40;;;;;;;5.90;3.35;;;256.40;2252.80;;;;;;4993754;28;20097;-60
2023/10/16 02:40:10;;;;;;;3.92;2.70;;;256.40;2252.80;;;;;;4996336;28;20038;-60
2023/10/16 02:42:39;;;;;;;7.93;3.63;;;256.50;2252.80;;;;;;4997538;28;20041;-60
2023/10/16 02:45:23;;;;;;;4.82;3.10;;;256.50;2252.80;;;;;;4997624;28;20417;-61
2023/10/16 02:47:49;;;;;;;5.70;3.65;;;256.50;2252.80;;;;;;4997388;28;20030;-62
2023/10/16 02:50:15;;;;;;;7.30;3.10;;;256.50;2252.80;;;;;;4997557;28;20037;-61
2023/10/16 02:52:41;;;;;;;4.63;2.67;;;256.50;2252.80;;;;;;4997603;28;20031;-61
2023/10/16 02:55:07;;;;;;;8.25;4.47;;;256.60;2252.80;;;;;;4997524;28;20030;-62
2023/10/16 02:57:33;;;;;;;6.38;3.40;;;256.60;2252.80;;;;;;4997600;28;20018;-61
2023/10/16 02:59:59;;;;;;;21.27;14.48;;;256.70;2252.80;;;;;;4997208;28;20109;-61
2023/10/16 03:02:27;;;;;;;12.68;9.57;;;256.70;2252.80;;;;;;4997045;28;20033;-63
2023/10/16 03:04:54;;;;;;;6.43;3.85;;;256.70;2252.80;;;;;;4996972;28;20034;-61
2023/10/16 03:07:20;;;;;;;7.43;3.13;;;256.70;2252.80;;;;;;4997229;28;20030;-59
2023/10/16 03:09:49;;;;;;;10.43;5.60;;;256.80;2252.80;;;;;;4997143;28;20376;-61
2023/10/16 03:12:15;;;;;;;11.00;5.68;;;256.80;2252.80;;;;;;4996666;28;20177;-60
2023/10/16 03:20:48;;;;;;;5.35;2.92;;;256.90;2252.80;;;;;;4997022;28;20126;-60
2023/10/16 03:23:14;;;;;;;5.40;3.55;;;281.60;2278.40;;;;;;4996767;28;20033;-61
2023/10/16 03:28:09;;;;;;;5.03;2.97;;;256.80;2252.80;;;;;;4996755;28;20037;-62
2023/10/16 03:30:35;;;;;;;4.75;2.85;;;256.80;2252.80;;;;;;4997099;28;20018;-61
2023/10/16 03:33:04;;;;;;;5.82;3.70;;;256.90;2252.80;;;;;;4996773;28;20026;-60
2023/10/16 03:35:30;;;;;;;9.77;3.83;;;256.90;2252.80;;;;;;4996855;28;20026;-62
2023/10/16 03:37:56;;;;;;;4.93;3.03;;;256.70;2252.80;;;;;;4996369;28;20036;-61
2023/10/16 03:40:27;;;;;;;5.85;3.15;;;256.70;2252.80;;;;;;4996622;28;20089;-61
2023/10/16 03:42:56;;;;;;;38.42;21.48;;;256.80;2252.80;;;;;;4996204;28;20121;-61
2023/10/16 03:45:21;;;;;;;7.70;4.68;;;256.80;2252.80;;;;;;4996190;28;20030;-61
2023/10/16 03:47:52;;;;;;;6.25;3.08;;;256.80;2252.80;;;;;;4996090;28;20033;-62
2023/10/16 03:50:39;;;;;;;6.85;2.67;;;256.90;2252.80;;;;;;4992262;28;20357;-61
2023/10/16 03:53:07;;;;;;;9.25;4.93;;;256.90;2252.80;;;;;;4991375;28;20393;-60
2023/10/16 03:55:48;;;;;;;6.60;4.78;;;256.90;2252.80;;;;;;4992454;28;20053;-61
2023/10/16 03:58:14;;;;;;;7.68;3.35;;;256.90;2252.80;;;;;;4992187;28;20034;-62
2023/10/16 04:00:58;;;;;;;8.75;4.28;;;256.80;2252.80;;;;;;4992084;28;20033;-60
2023/10/16 04:03:42;;;;;;;6.82;3.42;;;256.90;2252.80;;;;;;4992501;28;20037;-62
2023/10/16 04:06:09;;;;;;;7.50;3.55;;;256.80;2252.80;;;;;;4992654;28;20069;-62
2023/10/16 04:08:35;;;;;;;5.13;2.80;;;256.70;2252.80;;;;;;4991448;28;20041;-59
2023/10/16 04:11:02;;;;;;;6.63;3.38;;;256.70;2252.80;;;;;;4992766;28;20036;-62
2023/10/16 04:13:31;;;;;;;10.35;3.88;;;256.70;2252.80;;;;;;4964720;28;20043;-61
2023/10/16 04:16:09;;;;;;;6.80;2.83;;;256.70;2252.80;;;;;;4980402;28;20048;-62
2023/10/16 04:18:39;;;;;;;8.23;3.40;;;256.70;2252.80;;;;;;4991108;28;20113;-60
2023/10/16 04:24:01;;;;;;;5.78;2.78;;;256.70;2252.80;;;;;;4992263;28;20097;-61
2023/10/16 04:34:24;;;;;;;6.47;3.13;;;256.70;2252.80;;;;;;4992158;28;20037;-62
2023/10/16 04:36:52;;;;;;;6.18;3.17;;;256.70;2252.80;;;;;;4991958;28;20419;-59
2023/10/16 04:47:42;;;;;;;7.82;3.90;;;256.60;2252.80;;;;;;4900204;29;20081;-60
2023/10/16 04:50:09;;;;;;;5.60;3.60;;;256.50;2252.80;;;;;;4911182;29;20043;-60
2023/10/16 05:16:35;;;;;;;10.77;7.20;;;231.20;2252.80;;;;;;4873977;29;20072;-61
2023/10/16 05:19:03;;;;;;;14.50;8.65;;;231.10;2252.80;;;;;;4870820;29;20060;-62
2023/10/16 06:16:17;;;;;;;15.00;10.27;;;256.50;2252.80;;;;;;4989593;28;20053;-61
2023/10/16 06:18:44;;;;;;;15.10;8.57;;;281.90;2278.40;;;;;;4989652;28;20484;-62
2023/10/16 06:21:10;;;;;;;11.73;9.02;;;307.20;2304.00;;;;;;4989112;28;20030;-61
2023/10/16 06:23:42;;;;;;;12.35;9.13;;;308.10;2304.00;;;;;;4986700;28;20022;-60
2023/10/16 06:26:08;;;;;;;10.65;7.20;;;333.40;2329.60;;;;;;4987885;28;20088;-61
2023/10/16 06:28:35;;;;;;;9.82;7.15;;;332.80;2329.60;;;;;;4953848;28;20045;-61
2023/10/16 06:31:00;;;;;;;8.57;6.65;;;307.90;2304.00;;;;;;4985498;28;20030;-62
2023/10/16 06:33:28;;;;;;;8.20;6.07;;;307.50;2304.00;;;;;;4985615;28;20030;-61
2023/10/16 06:35:54;;;;;;;13.07;6.63;;;307.50;2304.00;;;;;;4981989;28;20030;-59
2023/10/16 06:38:21;;;;;;;9.70;6.38;;;307.50;2304.00;;;;;;4987360;28;20121;-61
2023/10/16 06:40:47;;;;;;;12.30;7.57;;;307.40;2304.00;;;;;;4986989;28;20046;-60
2023/10/16 06:43:14;;;;;;;9.65;5.80;;;307.30;2304.00;;;;;;4978093;28;20038;-63
2023/10/16 06:45:57;;;;;;;8.90;5.93;;;307.30;2304.00;;;;;;4982585;28;20396;-62
2023/10/16 06:48:27;;;;;;;8.98;5.20;;;307.50;2304.00;;;;;;4981814;28;20031;-62
2023/10/16 06:50:53;;;;;;;14.95;12.07;;;307.50;2304.00;;;;;;4981980;28;20706;-60
2023/10/16 06:53:23;;;;;;;8.00;5.55;;;307.70;2304.00;;;;;;4987940;28;20034;-62
2023/10/16 06:55:52;;;;;;;17.20;15.50;;;308.00;2304.00;;;;;;4987621;28;20038;-59
2023/10/16 06:58:20;;;;;;;10.55;5.05;;;308.10;2304.00;;;;;;4985748;28;20038;-63
2023/10/16 07:00:50;;;;;;;10.32;4.88;;;332.90;2329.60;;;;;;4987156;28;20092;-62
2023/10/16 07:03:16;;;;;;;7.70;4.45;;;333.20;2329.60;;;;;;4975230;28;20527;-61
2023/10/16 07:05:45;;;;;;;8.55;4.75;;;333.20;2329.60;;;;;;4968896;28;20024;-61
2023/10/16 07:08:16;;;;;;;7.25;4.80;;;333.40;2329.60;;;;;;4969126;28;20030;-62
2023/10/16 07:10:49;;;;;;;8.70;5.40;;;358.60;2329.60;;;;;;4980178;28;20131;-67
2023/10/16 07:13:27;;;;;;;9.95;5.13;;;358.50;2329.60;;;;;;4981082;28;20118;-69
2023/10/16 07:16:07;;;;;;;7.75;4.53;;;358.50;2329.60;;;;;;4987345;28;20031;-70
2023/10/16 07:18:33;;;;;;;9.30;4.85;;;358.40;2329.60;;;;;;4987349;28;20939;-66
2023/10/16 07:21:07;;;;;;;7.40;4.93;;;358.50;2329.60;;;;;;4986879;28;20023;-72
2023/10/16 07:23:36;;;;;;;;;;;358.90;2329.60;;;;;;4982351;28;20027;-70
2023/10/16 07:26:04;;;;;;;6.95;4.25;;;384.30;2329.60;;;;;;4986358;28;20587;-70
2023/10/16 07:28:31;;;;;;;6.45;4.35;;;384.90;2329.60;;;;;;4990353;28;20038;-71
2023/10/16 07:30:59;;;;;;;8.20;5.10;;;410.50;2355.20;;;;;;4990944;28;20026;-71
2023/10/16 07:33:26;;;;;;;11.70;5.75;;;410.30;2355.20;;;;;;4989983;28;20034;-68
2023/10/16 07:35:54;;;;;;;6.47;4.75;;;410.00;2355.20;;;;;;4970600;28;20030;-70
2023/10/16 07:38:25;;;;;;;9.25;5.68;;;435.30;2355.20;;;;;;4984884;28;20034;-70
2023/10/16 07:40:55;;;;;;;7.30;5.30;;;460.90;2380.80;;;;;;4986519;28;20372;-69
2023/10/16 07:43:29;;;;;;;11.98;5.75;;;461.20;2304.00;;;;;;4983949;28;20354;-71
2023/10/16 07:48:40;;;;;;;7.80;5.90;;;512.60;2073.60;;;;;;4952065;28;20041;-70
2023/10/16 07:51:07;;;;;;;7.38;5.45;;;512.80;2022.40;;;;;;4985743;28;20046;-70
2023/10/16 07:53:36;;;;;;;8.70;6.28;;;512.70;2022.40;;;;;;4990824;28;20030;-70
2023/10/16 07:56:03;;;;;;;8.63;4.70;;;512.70;1996.80;;;;;;4988752;28;20058;-70
2023/10/16 07:58:47;;;;;;;6.72;4.65;;;538.20;1971.20;;;;;;4990381;28;20127;-69
2023/10/16 08:03:41;;;;;;;7.40;5.15;;;538.10;1894.40;;;;;;4990764;28;20026;-70
2023/10/16 08:06:16;;;;;;;6.15;5.10;;;538.30;1868.80;;;;;;4990566;28;20451;-70
2023/10/16 08:08:48;;;;;;;6.72;5.10;;;564.00;1868.80;;;;;;4990424;28;20030;-70
2023/10/16 08:11:20;;;;;;;5.65;5.03;;;588.90;1817.60;;;;;;4989839;28;20270;-70
2023/10/16 08:13:49;;;;;;;6.47;5.17;;;614.40;1766.40;;;;;;4977253;28;20043;-71
2023/10/16 08:16:19;;;;;;;6.38;4.85;;;615.00;1664.00;;;;;;4982050;28;20821;-70
2023/10/16 08:18:47;;;;;;;6.97;5.97;;;665.60;1612.80;;;;;;4985940;28;20077;-71
2023/10/16 08:21:24;;;;;;;6.93;5.82;;;666.40;1561.60;;;;;;4989115;28;20114;-70
2023/10/16 08:23:53;;;;;;;8.23;6.90;;;666.00;1587.20;;;;;;4989867;28;20030;-71
2023/10/16 08:26:28;;;;;;;8.82;5.55;;;692.10;1484.80;;;;;;4991801;28;20036;-70
2023/10/16 08:29:11;;;;;;;6.82;5.60;;;717.40;1459.20;;;;;;4991786;28;20030;-71
2023/10/16 08:31:52;;;;;;;5.95;5.35;;;742.60;1459.20;;;;;;4978481;28;20019;-70
2023/10/16 08:34:21;;;;;;;7.05;4.82;;;742.60;1433.60;;;;;;4980476;28;20026;-73
2023/10/16 08:36:51;;;;;;;7.10;6.05;;;691.90;1408.00;;;;;;4990489;28;20022;-71
2023/10/16 08:39:19;;;;;;;6.10;4.93;;;691.80;1433.60;;;;;;4991449;28;20042;-71
2023/10/16 08:41:51;;;;;;;8.13;6.47;;;640.10;1510.40;;;;;;4990891;28;20464;-71
2023/10/16 08:44:18;;;;;;;6.35;4.93;;;640.80;1510.40;;;;;;4991028;28;20066;-72
2023/10/16 08:46:45;;;;;;;9.02;6.60;;;640.20;1536.00;;;;;;4982179;28;20031;-71
2023/10/16 08:49:12;;;;;;;8.90;6.00;;;665.80;1510.40;;;;;;4977734;28;20026;-70
2023/10/16 08:51:38;;;;;;;11.13;8.25;;;589.50;1612.80;;;;;;4990993;28;20018;-71
2023/10/16 08:54:05;;;;;;;9.30;7.50;;;589.70;1638.40;;;;;;4989573;28;20382;-71
2023/10/16 08:56:32;;;;;;;22.17;20.08;;;640.60;1536.00;;;;;;4990995;28;20468;-71
2023/10/16 08:59:01;;;;;;;8.43;7.72;;;666.10;1510.40;;;;;;4990833;28;20038;-71
2023/10/16 09:01:28;;;;;;;8.10;7.28;;;665.70;1484.80;;;;;;4990772;28;20089;-71
2023/10/16 09:04:08;;;;;;;9.93;9.10;;;640.20;1510.40;;;;;;4989790;28;20121;-71
2023/10/16 09:06:37;;;;;;;6.25;4.93;;;640.20;1536.00;;;;;;4990993;28;20027;-71
2023/10/16 09:09:13;;;;;;;24.08;11.98;;;614.50;1536.00;;;;;;4984313;28;20077;-70
2023/10/16 09:11:40;;;;;;;6.65;5.22;;;589.10;1587.20;;;;;;4990337;28;20018;-71
2023/10/16 09:14:07;;;;;;;6.13;4.50;;;563.60;1664.00;;;;;;4990730;28;20066;-70
2023/10/16 09:16:34;;;;;;;9.77;5.63;;;538.30;1689.60;;;;;;4990352;28;20053;-71
2023/10/16 09:19:06;;;;;;;14.48;9.82;;;512.90;1715.20;;;;;;4990937;28;20042;-69
2023/10/16 09:21:38;;;;;;;5.70;4.32;;;512.50;1740.80;;;;;;4977625;28;20023;-71
2023/10/16 09:24:06;;;;;;;8.35;4.63;;;486.80;1792.00;;;;;;4982636;28;20084;-70
2023/10/16 09:26:38;;;;;;;5.78;4.05;;;460.80;1894.40;;;;;;4990768;28;20026;-71
2023/10/16 09:29:14;;;;;;;6.88;3.60;;;460.80;1920.00;;;;;;4990082;28;20022;-71
2023/10/16 09:31:44;;;;;;;6.68;4.10;;;460.90;1920.00;;;;;;4990150;28;20066;-70
2023/10/16 09:34:14;;;;;;;5.53;3.63;;;461.40;1920.00;;;;;;4989976;28;20034;-70
2023/10/16 09:36:39;;;;;;;6.72;3.80;;;461.10;1945.60;;;;;;4990483;28;20033;-71
2023/10/16 09:39:18;;;;;;;4.40;3.20;;;461.20;1894.40;;;;;;4990141;28;20042;-71
2023/10/16 09:41:49;;;;;;;4.97;3.08;;;460.90;1817.60;;;;;;4965035;28;20105;-70
2023/10/16 09:44:36;;;;;;;6.53;3.80;;;435.20;1920.00;;;;;;4990125;28;20034;-70
2023/10/16 09:47:25;;;;;;;7.22;3.88;;;435.30;1920.00;;;;;;4990630;28;20033;-70
2023/10/16 09:49:49;;;;;;;5.13;3.60;;;435.80;1920.00;;;;;;4989538;28;20029;-70
2023/10/16 09:52:20;;;;;;;5.53;3.35;;;435.50;1920.00;;;;;;4989117;28;20030;-68
2023/10/16 09:54:48;;;;;;;4.75;3.58;;;435.30;1945.60;;;;;;4977544;28;20031;-71
2023/10/16 09:57:19;;;;;;;7.20;4.70;;;435.30;1945.60;;;;;;4978868;28;20030;-70
2023/10/16 09:59:45;;;;;;;7.05;3.92;;;435.60;1971.20;;;;;;4990239;28;20101;-70
2023/10/16 10:02:25;;;;;;;8.45;6.40;;;435.60;1971.20;;;;;;4989810;28;20030;-70
2023/10/16 10:05:03;;;;;;;10.82;6.75;;;435.80;1894.40;;;;;;4989625;28;20077;-70
2023/10/16 10:07:38;;;;;;;6.45;3.72;;;435.50;1920.00;;;;;;4990508;28;20038;-71
2023/10/16 10:12:56;;;;;;;5.90;4.00;;;435.60;1920.00;;;;;;4989624;28;20054;-69
2023/10/16 10:15:30;;;;;;;7.35;3.92;;;435.30;1945.60;;;;;;4990069;28;20034;-70
2023/10/16 10:18:03;;;;;;;4.70;3.38;;;435.60;1971.20;;;;;;4964696;28;20023;-70
2023/10/16 10:20:32;;;;;;;7.55;3.47;;;435.20;1971.20;;;;;;4989417;28;20069;-69
2023/10/16 10:23:08;;;;;;;4.38;2.90;;;435.30;1920.00;;;;;;4989532;28;20022;-70
2023/10/16 10:25:36;;;;;;;8.88;3.33;;;435.40;1868.80;;;;;;4988914;28;20023;-71
2023/10/16 10:28:22;;;;;;;4.32;3.00;;;410.40;1894.40;;;;;;4974376;28;20038;-70
2023/10/16 10:30:49;;;;;;;5.10;3.90;;;409.90;1920.00;;;;;;4980824;28;20018;-70
2023/10/16 10:33:51;;;;;;;6.28;4.07;;;409.80;1945.60;;;;;;4989471;28;20054;-69
2023/10/16 10:36:32;;;;;;;6.22;4.40;;;384.90;1945.60;;;;;;4981122;28;20034;-71
2023/10/16 10:39:20;;;;;;;8.98;4.75;;;384.80;1971.20;;;;;;4989724;28;20543;-69
2023/10/16 10:41:51;;;;;;;7.13;4.18;;;384.90;1945.60;;;;;;4965014;28;20109;-70
2023/10/16 10:44:19;;;;;;;6.40;4.30;;;410.00;1920.00;;;;;;4989576;28;20042;-71
2023/10/16 10:46:53;;;;;;;6.72;4.03;;;435.20;1920.00;;;;;;4989616;28;20049;-70
2023/10/16 10:49:34;;;;;;;7.28;4.50;;;410.00;1894.40;;;;;;4989439;28;20106;-70
2023/10/16 10:52:05;;;;;;;7.18;4.30;;;410.10;1920.00;;;;;;4990194;28;20113;-70
2023/10/16 10:54:31;;;;;;;5.05;3.58;;;435.20;1920.00;;;;;;4989470;28;20056;-70
2023/10/16 10:57:07;;;;;;;9.02;5.15;;;435.20;1920.00;;;;;;4988750;28;20022;-70
2023/10/16 10:59:40;;;;;;;9.48;6.40;;;409.80;1920.00;;;;;;4989423;28;20039;-71
2023/10/16 11:02:22;;;;;;;4.95;3.22;;;410.00;1920.00;;;;;;4992391;28;20118;-70
2023/10/16 11:04:58;;;;;;;26.23;18.95;;;410.30;1894.40;;;;;;4990099;28;20038;-70
2023/10/16 11:07:59;;;;;;;30.45;15.82;;;435.40;1868.80;;;;;;4979243;28;20516;-70
2023/10/16 11:10:25;;;;;;;7.07;4.35;;;435.40;1868.80;;;;;;4972727;28;20044;-70
2023/10/16 11:12:50;;;;;;;7.72;3.30;;;410.50;1868.80;;;;;;4992588;28;20050;-70
2023/10/16 11:15:17;;;;;;;6.60;4.57;;;409.60;1945.60;;;;;;4992426;28;20045;-70
2023/10/16 11:17:44;;;;;;;11.05;5.95;;;409.60;1945.60;;;;;;4992878;28;20109;-71
2023/10/16 11:22:46;;;;;;;11.55;6.55;;;409.70;1996.80;;;;;;4976158;28;20106;-71
2023/10/16 11:25:13;;;;;;;7.78;4.75;;;409.90;2022.40;;;;;;4993238;28;20041;-71
2023/10/16 11:27:42;;;;;;;9.63;5.57;;;410.00;1996.80;;;;;;4992994;28;20022;-69
2023/10/16 11:30:18;;;;;;;6.07;3.33;;;384.90;1945.60;;;;;;4992966;28;20484;-70
2023/10/16 11:32:46;;;;;;;5.80;3.45;;;409.60;1920.00;;;;;;4992401;28;20030;-71
2023/10/16 11:35:15;;;;;;;81.95;37.55;;;384.80;1894.40;;;;;;4982544;28;20058;-68
2023/10/16 11:37:49;;;;;;;11.32;4.47;;;384.70;1971.20;;;;;;4976620;28;20130;-68
2023/10/16 11:40:18;;;;;;;7.15;3.70;;;384.80;1920.00;;;;;;4992917;28;20042;-71
2023/10/16 11:42:48;;;;;;;6.43;3.50;;;384.30;1945.60;;;;;;4992358;28;20073;-71
2023/10/16 11:45:20;;;;;;;5.90;3.10;;;384.50;1945.60;;;;;;4992648;28;20038;-70
2023/10/16 11:48:18;;;;;;;5.78;3.50;;;384.40;1945.60;;;;;;4991777;28;20030;-70
2023/10/16 11:50:39;;;;;;;8.05;3.97;;;384.90;1971.20;;;;;;4989984;28;20089;-71
2023/10/16 11:53:07;;;;;;;7.60;3.70;;;384.90;1920.00;;;;;;4990534;28;20046;-69
2023/10/16 11:55:37;;;;;;;7.32;3.90;;;409.60;1945.60;;;;;;4991134;28;20536;-68
2023/10/16 11:58:06;;;;;;;10.57;4.47;;;409.60;1945.60;;;;;;4980608;28;20041;-70
2023/10/16 12:00:35;;;;;;;7.47;3.95;;;384.90;1920.00;;;;;;4985436;28;20045;-70
2023/10/16 12:03:07;;;;;;;7.20;3.88;;;384.80;1920.00;;;;;;4990105;28;20042;-68
2023/10/16 12:05:34;;;;;;;5.25;3.90;;;384.90;1894.40;;;;;;4990894;28;20480;-69
2023/10/16 12:08:02;;;;;;;7.97;5.75;;;384.80;1920.00;;;;;;4974835;28;20064;-71
2023/10/16 12:10:29;;;;;;;7.15;5.10;;;409.60;1945.60;;;;;;4985241;28;20086;-69
2023/10/16 12:12:55;;;;;;;6.43;3.47;;;384.90;1920.00;;;;;;4989233;28;20141;-71
2023/10/16 12:15:24;;;;;;;5.57;3.90;;;384.90;1894.40;;;;;;4990367;28;20067;-69
2023/10/16 12:17:53;;;;;;;6.32;3.35;;;384.70;1894.40;;;;;;4990577;28;20049;-71
2023/10/16 12:20:21;;;;;;;5.20;3.53;;;384.60;1894.40;;;;;;4990125;28;20042;-71
2023/10/16 12:22:49;;;;;;;8.60;5.13;;;384.40;1920.00;;;;;;4991052;28;20084;-70
2023/10/16 12:25:15;;;;;;;7.07;4.15;;;384.60;1920.00;;;;;;4989816;28;20029;-72
2023/10/16 12:27:41;;;;;;;6.20;3.63;;;384.50;1920.00;;;;;;4990579;28;20038;-70
2023/10/16 12:30:13;;;;;;;6.45;4.05;;;384.80;1894.40;;;;;;4989784;28;20388;-71
2023/10/16 12:32:39;;;;;;;6.10;3.42;;;384.50;1894.40;;;;;;4990172;28;20014;-69
2023/10/16 12:35:08;;;;;;;11.23;5.45;;;384.60;1894.40;;;;;;4989846;28;20030;-69
2023/10/16 12:37:35;;;;;;;8.35;4.93;;;384.60;1894.40;;;;;;4972564;28;20395;-68
2023/10/16 12:40:24;;;;;;;6.88;3.65;;;384.80;1894.40;;;;;;4989946;28;20113;-71
2023/10/16 12:42:47;;;;;;;14.35;4.30;;;384.60;1894.40;;;;;;4974147;28;20049;-71
2023/10/16 12:45:12;;;;;;;10.23;5.57;;;384.90;1894.40;;;;;;4990510;28;20034;-70
2023/10/16 12:47:38;;;;;;;11.77;7.22;;;384.50;1920.00;;;;;;4989606;28;20027;-71
2023/10/16 12:50:05;;;;;;;13.77;8.63;;;384.50;1920.00;;;;;;4990018;28;20074;-69
2023/10/16 12:52:31;;;;;;;9.77;4.75;;;384.70;1920.00;;;;;;4989103;28;20045;-71
2023/10/16 12:55:00;;;;;;;8.43;5.05;;;384.90;1868.80;;;;;;4989299;28;20109;-69
2023/10/16 12:57:28;;;;;;;5.43;4.03;;;384.80;1868.80;;;;;;4988318;28;20030;-69
2023/10/16 12:59:56;;;;;;;8.00;5.05;;;384.60;1894.40;;;;;;4986989;28;20081;-69
2023/10/16 13:02:25;;;;;;;10.18;6.05;;;384.80;1868.80;;;;;;4988729;28;20034;-69
2023/10/16 13:04:52;;;;;;;6.45;4.20;;;409.70;1868.80;;;;;;4989177;28;20027;-71
2023/10/16 13:07:20;;;;;;;9.10;5.45;;;409.70;1894.40;;;;;;4980557;28;20109;-70
2023/10/16 13:09:47;;;;;;;5.40;4.28;;;409.90;1868.80;;;;;;4987985;28;20154;-69
2023/10/16 13:12:13;;;;;;;8.05;4.75;;;384.90;1843.20;;;;;;4989361;28;20060;-69
2023/10/16 13:14:39;;;;;;;8.07;4.60;;;384.90;1843.20;;;;;;4981774;28;20160;-70
2023/10/16 13:17:08;;;;;;;7.35;4.22;;;409.70;1843.20;;;;;;4982838;28;20639;-70
2023/10/16 13:19:34;;;;;;;9.27;5.18;;;409.60;1868.80;;;;;;4989417;28;20099;-71
2023/10/16 13:22:10;;;;;;;11.95;7.57;;;384.70;1868.80;;;;;;4989133;28;20073;-69
2023/10/16 13:24:37;;;;;;;8.48;4.70;;;384.80;1843.20;;;;;;4986893;28;20042;-69
2023/10/16 13:27:06;;;;;;;8.13;4.82;;;384.50;1868.80;;;;;;4988872;28;20026;-70
2023/10/16 13:29:32;;;;;;;8.68;4.38;;;384.60;1894.40;;;;;;4989348;28;20030;-71
2023/10/16 13:32:00;;;;;;;8.38;7.32;;;384.50;1868.80;;;;;;4987336;28;20030;-71
2023/10/16 13:34:26;;;;;;;8.82;4.70;;;384.40;1894.40;;;;;;4988642;28;20030;-71
2023/10/16 13:37:01;;;;;;;5.78;3.40;;;384.20;1868.80;;;;;;4988553;28;20026;-70
2023/10/16 13:39:31;;;;;;;12.65;4.43;;;384.10;1868.80;;;;;;4988960;28;20125;-70
2023/10/16 13:41:57;;;;;;;8.73;5.13;;;384.50;1868.80;;;;;;4987733;28;20026;-71
2023/10/16 13:44:24;;;;;;;8.00;5.43;;;384.50;1894.40;;;;;;4987683;28;20049;-70
2023/10/16 13:46:53;;;;;;;7.38;4.07;;;384.60;1894.40;;;;;;4972447;28;20073;-70
2023/10/16 13:49:19;;;;;;;7.90;5.50;;;384.40;1868.80;;;;;;4984564;28;20032;-70
2023/10/16 13:51:47;;;;;;;11.85;7.35;;;384.20;1920.00;;;;;;4987744;28;20041;-69
2023/10/16 13:54:14;;;;;;;10.45;6.97;;;384.10;1894.40;;;;;;4988112;28;20035;-69
2023/10/16 13:56:45;;;;;;;17.13;10.30;;;384.30;1920.00;;;;;;4988660;28;20472;-68
2023/10/16 13:59:11;;;;;;;9.45;6.38;;;384.50;1945.60;;;;;;4986582;28;20046;-70
2023/10/16 14:01:47;;;;;;;14.40;8.35;;;384.20;1894.40;;;;;;4987690;28;20105;-70
2023/10/16 14:04:14;;;;;;;8.43;6.10;;;384.00;1920.00;;;;;;4976524;28;20487;-70
2023/10/16 14:06:46;;;;;;;14.20;7.50;;;384.20;1920.00;;;;;;4978804;28;20030;-70
2023/10/16 14:09:19;;;;;;;16.10;9.07;;;384.30;1920.00;;;;;;4988096;28;20018;-72
2023/10/16 14:11:48;;;;;;;9.88;6.00;;;384.30;1894.40;;;;;;4987305;28;20034;-70
2023/10/16 14:14:19;;;;;;;16.05;8.55;;;384.20;1894.40;;;;;;4987179;28;20161;-71
2023/10/16 14:16:52;;;;;;;15.30;5.80;;;384.30;1894.40;;;;;;4988415;28;20031;-71
2023/10/16 14:19:28;;;;;;;10.82;5.80;;;384.20;1894.40;;;;;;4984376;28;20117;-69
2023/10/16 14:21:55;;;;;;;8.15;4.18;;;384.30;1894.40;;;;;;4979431;28;20027;-71
2023/10/16 14:24:26;;;;;;;13.93;8.52;;;384.20;1868.80;;;;;;4954608;28;20037;-70
2023/10/16 14:26:56;;;;;;;7.18;4.22;;;384.20;1868.80;;;;;;4978869;28;20022;-71
2023/10/16 14:29:23;;;;;;;12.18;6.07;;;384.20;1868.80;;;;;;4975074;28;20026;-70
2023/10/16 14:31:55;;;;;;;13.35;8.57;;;384.30;1894.40;;;;;;4988207;28;20022;-71
2023/10/16 14:34:24;;;;;;;35.78;18.45;;;384.20;1920.00;;;;;;4986222;28;20110;-68
2023/10/16 14:36:52;;;;;;;22.90;13.40;;;384.00;1971.20;;;;;;4965672;28;20033;-69